createdAt,value
2019-04-04T00:00:16.343Z,60.33
2019-04-04T00:02:43.184Z,44.88
2019-04-04T00:05:09.640Z,48.10
2019-04-04T00:07:36.033Z,43.73
2019-04-04T00:10:04.663Z,42.88
2019-04-04T00:12:30.995Z,39.30
2019-04-04T00:14:57.267Z,39.65
2019-04-04T00:17:23.835Z,34.60
2019-04-04T00:19:50.303Z,33.58
2019-04-04T00:22:16.774Z,33.92
2019-04-04T00:24:43.121Z,30.37
2019-04-04T00:27:11.227Z,30.48
2019-04-04T00:29:37.620Z,28.35
2019-04-04T00:32:04.006Z,24.43
2019-04-04T00:34:30.382Z,27.32
2019-04-04T00:36:56.724Z,26.40
2019-04-04T00:39:23.052Z,23.15
2019-04-04T00:41:49.444Z,27.60
2019-04-04T00:44:15.722Z,27.60
2019-04-04T00:46:42.116Z,26.62
2019-04-04T00:49:08.600Z,27.70
2019-04-04T00:51:34.942Z,27.22
2019-04-04T00:54:01.770Z,27.02
2019-04-04T00:56:28.261Z,21.25
2019-04-04T00:58:54.620Z,23.65
2019-04-04T01:01:20.894Z,19.95
2019-04-04T01:03:47.252Z,22.42
2019-04-04T01:06:13.520Z,26.30
2019-04-04T01:08:39.779Z,22.42
2019-04-04T01:11:06.083Z,19.42
2019-04-04T01:13:32.509Z,20.95
2019-04-04T01:15:58.888Z,22.10
2019-04-04T01:18:25.152Z,22.22
2019-04-04T01:20:51.501Z,19.48
2019-04-04T01:23:17.858Z,21.30
2019-04-04T01:25:44.163Z,23.05
2019-04-04T01:28:10.421Z,21.60
2019-04-04T01:30:36.845Z,21.20
2019-04-04T01:33:03.803Z,22.42
2019-04-04T01:35:30.265Z,22.07
2019-04-04T01:37:58.149Z,20.12
2019-04-04T01:40:24.653Z,20.88
2019-04-04T01:42:50.907Z,19.02
2019-04-04T01:45:17.607Z,19.92
2019-04-04T01:47:43.835Z,18.02
2019-04-04T01:50:10.392Z,18.70
2019-04-04T01:52:36.932Z,19.15
2019-04-04T01:55:04.293Z,19.12
2019-04-04T01:57:30.642Z,18.12
2019-04-04T01:59:57.141Z,18.15
2019-04-04T02:02:23.593Z,18.07
2019-04-04T02:04:49.861Z,16.50
2019-04-04T02:07:16.144Z,17.35
2019-04-04T02:09:43.489Z,19.70
2019-04-04T02:12:10.187Z,16.80
2019-04-04T02:14:36.450Z,16.40
2019-04-04T02:17:03.215Z,16.02
2019-04-04T02:19:29.623Z,17.37
2019-04-04T02:21:55.900Z,17.30
2019-04-04T02:24:22.284Z,17.57
2019-04-04T02:26:48.653Z,17.92
2019-04-04T02:29:15.027Z,18.62
2019-04-04T02:31:53.595Z,16.30
2019-04-04T02:34:20.234Z,17.05
2019-04-04T02:36:49.113Z,16.42
2019-04-04T02:39:17.336Z,19.10
2019-04-04T02:41:47.540Z,17.67
2019-04-04T02:44:11.884Z,17.62
2019-04-04T02:46:38.362Z,19.37
2019-04-04T02:49:04.800Z,17.32
2019-04-04T02:51:31.152Z,17.40
2019-04-04T02:53:57.645Z,16.37
2019-04-04T02:56:23.949Z,17.65
2019-04-04T02:58:50.398Z,18.62
2019-04-04T03:01:17.317Z,18.05
2019-04-04T03:03:43.693Z,17.82
2019-04-04T03:06:10.153Z,18.95
2019-04-04T03:08:38.440Z,21.15
2019-04-04T03:11:04.888Z,20.30
2019-04-04T03:13:32.313Z,17.85
2019-04-04T03:15:58.724Z,18.85
2019-04-04T03:18:25.134Z,17.20
2019-04-04T03:20:51.506Z,20.37
2019-04-04T03:23:17.956Z,17.85
2019-04-04T03:25:44.665Z,17.67
2019-04-04T03:28:12.590Z,19.90
2019-04-04T03:30:39.343Z,22.45
2019-04-04T03:33:05.848Z,21.80
2019-04-04T03:35:32.102Z,19.70
2019-04-04T03:37:58.498Z,18.82
2019-04-04T03:40:25.825Z,19.77
2019-04-04T03:42:52.458Z,20.08
2019-04-04T03:45:19.044Z,21.68
2019-04-04T03:47:45.425Z,22.17
2019-04-04T03:50:11.825Z,20.17
2019-04-04T03:52:38.114Z,20.43
2019-04-04T03:55:05.479Z,17.82
2019-04-04T03:57:31.754Z,21.42
2019-04-04T03:59:58.003Z,23.85
2019-04-04T04:02:24.268Z,25.15
2019-04-04T04:04:50.571Z,25.40
2019-04-04T04:07:17.167Z,24.65
2019-04-04T04:09:43.425Z,26.12
2019-04-04T04:12:11.073Z,24.30
2019-04-04T04:14:37.768Z,28.75
2019-04-04T04:17:04.040Z,34.08
2019-04-04T04:19:31.398Z,26.37
2019-04-04T04:21:58.003Z,28.00
2019-04-04T04:24:26.738Z,31.35
2019-04-04T04:26:52.612Z,27.30
2019-04-04T04:29:18.902Z,31.70
2019-04-04T04:31:48.132Z,28.35
2019-04-04T04:34:13.223Z,32.05
2019-04-04T04:36:39.494Z,32.78
2019-04-04T04:39:05.953Z,36.98
2019-04-04T04:41:33.345Z,38.40
2019-04-04T04:43:59.598Z,37.88
2019-04-04T04:46:25.894Z,32.53
2019-04-04T04:48:52.412Z,33.60
2019-04-04T04:51:18.720Z,32.65
2019-04-04T04:53:45.093Z,27.87
2019-04-04T04:56:11.574Z,27.35
2019-04-04T04:58:37.933Z,35.73
2019-04-04T05:01:04.230Z,31.07
2019-04-04T05:03:30.604Z,29.15
2019-04-04T05:05:56.886Z,34.38
2019-04-04T05:08:23.156Z,36.05
2019-04-04T05:10:49.447Z,31.45
2019-04-04T05:13:15.831Z,34.20
2019-04-04T05:15:42.214Z,33.50
2019-04-04T05:18:08.475Z,32.85
2019-04-04T05:20:34.942Z,38.73
2019-04-04T05:23:01.238Z,34.65
2019-04-04T05:25:30.995Z,36.75
2019-04-04T05:27:55.826Z,40.08
2019-04-04T05:30:22.208Z,38.45
2019-04-04T05:32:49.985Z,35.75
2019-04-04T05:35:16.698Z,35.90
2019-04-04T05:37:42.973Z,35.15
2019-04-04T05:40:10.390Z,36.60
2019-04-04T05:42:36.730Z,34.95
2019-04-04T05:45:05.780Z,33.98
2019-04-04T05:47:32.123Z,36.75
2019-04-04T05:49:58.534Z,38.70
2019-04-04T05:52:24.917Z,37.73
2019-04-04T05:54:51.201Z,39.90
2019-04-04T05:57:19.755Z,40.73
2019-04-04T05:59:45.489Z,38.73
2019-04-04T06:02:15.058Z,42.40
2019-04-04T06:04:41.304Z,35.73
2019-04-04T06:07:07.839Z,39.38
2019-04-04T06:09:34.075Z,40.48
2019-04-04T06:12:00.363Z,36.68
2019-04-04T06:14:27.953Z,45.85
2019-04-04T06:16:54.726Z,35.58
2019-04-04T06:19:21.084Z,37.93
2019-04-04T06:21:47.892Z,40.43
2019-04-04T06:24:15.522Z,41.40
2019-04-04T06:26:41.793Z,28.17
2019-04-04T06:29:08.148Z,29.95
2019-04-04T06:31:34.567Z,45.40
2019-04-04T06:34:00.961Z,27.10
2019-04-04T06:36:27.242Z,44.00
2019-04-04T06:38:54.111Z,43.00
2019-04-04T06:41:20.925Z,44.93
2019-04-04T06:43:47.234Z,44.03
2019-04-04T06:46:13.711Z,36.38
2019-04-04T06:51:22.028Z,31.75
2019-04-04T06:53:48.475Z,35.85
2019-04-04T06:56:14.762Z,30.97
2019-04-04T06:58:41.050Z,29.92
2019-04-04T07:01:07.524Z,31.85
2019-04-04T07:03:34.120Z,31.87
2019-04-04T07:06:00.505Z,27.32
2019-04-04T07:08:26.784Z,32.65
2019-04-04T07:10:58.186Z,27.05
2019-04-04T07:13:24.509Z,29.60
2019-04-04T07:16:05.446Z,29.72
2019-04-04T07:18:17.832Z,30.30
2019-04-04T07:20:47.863Z,30.80
2019-04-04T07:23:14.319Z,30.55
2019-04-04T07:25:40.725Z,28.95
2019-04-04T07:28:07.246Z,30.92
2019-04-04T07:30:35.628Z,30.00
2019-04-04T07:33:02.143Z,28.62
2019-04-04T07:35:28.402Z,31.73
2019-04-04T07:37:57.460Z,26.48
2019-04-04T07:40:22.969Z,26.42
2019-04-04T07:42:49.357Z,27.27
2019-04-04T07:45:15.952Z,26.37
2019-04-04T07:47:42.428Z,26.33
2019-04-04T07:50:09.304Z,24.12
2019-04-04T07:52:35.693Z,20.92
2019-04-04T07:55:02.250Z,22.05
2019-04-04T07:57:30.108Z,23.18
2019-04-04T07:59:56.916Z,25.23
2019-04-04T08:02:23.339Z,22.45
2019-04-04T08:04:49.720Z,21.82
2019-04-04T08:07:16.215Z,21.15
2019-04-04T08:09:42.393Z,20.85
2019-04-04T08:12:09.029Z,21.15
2019-04-04T08:14:35.529Z,22.45
2019-04-04T08:17:01.927Z,20.77
2019-04-04T08:19:28.194Z,22.48
2019-04-04T08:21:54.474Z,22.42
2019-04-04T08:24:21.007Z,24.43
2019-04-04T08:26:47.441Z,24.18
2019-04-04T08:29:13.881Z,25.15
2019-04-04T08:31:40.256Z,26.50
2019-04-04T08:34:06.507Z,24.72
2019-04-04T08:36:35.697Z,25.85
2019-04-04T08:39:01.423Z,22.87
2019-04-04T08:41:28.094Z,19.98
2019-04-04T08:43:55.837Z,20.23
2019-04-04T08:46:22.210Z,24.35
2019-04-04T08:48:48.657Z,20.27
2019-04-04T08:51:14.902Z,21.37
2019-04-04T08:53:41.311Z,21.87
2019-04-04T08:56:07.733Z,24.55
2019-04-04T08:58:33.999Z,22.32
2019-04-04T09:01:00.669Z,24.32
2019-04-04T09:03:27.132Z,23.57
2019-04-04T09:05:53.394Z,22.52
2019-04-04T09:08:19.756Z,23.57
2019-04-04T09:10:46.338Z,21.80
2019-04-04T09:13:12.693Z,23.10
2019-04-04T09:15:39.125Z,24.32
2019-04-04T09:18:05.639Z,25.80
2019-04-04T09:20:34.424Z,23.07
2019-04-04T09:23:00.828Z,27.82
2019-04-04T09:25:27.344Z,24.40
2019-04-04T09:27:53.619Z,24.05
2019-04-04T09:30:21.054Z,21.95
2019-04-04T09:32:47.543Z,22.32
2019-04-04T09:35:15.859Z,24.27
2019-04-04T09:37:42.338Z,23.10
2019-04-04T09:40:09.748Z,24.85
2019-04-04T09:42:36.231Z,24.77
2019-04-04T09:45:06.249Z,25.48
2019-04-04T09:47:32.782Z,26.80
2019-04-04T09:49:59.041Z,24.98
2019-04-04T09:52:25.511Z,27.52
2019-04-04T09:54:51.994Z,23.52
2019-04-04T09:57:18.372Z,25.65
2019-04-04T09:59:44.659Z,27.90
2019-04-04T10:02:11.343Z,22.55
2019-04-04T10:04:37.581Z,23.67
2019-04-04T10:07:04.035Z,23.47
2019-04-04T10:09:30.533Z,21.62
2019-04-04T10:11:56.867Z,22.10
2019-04-04T10:14:24.241Z,23.38
2019-04-04T10:16:51.078Z,22.55
2019-04-04T10:19:17.414Z,24.98
2019-04-04T10:21:43.830Z,22.25
2019-04-04T10:24:10.150Z,20.45
2019-04-04T10:26:36.492Z,22.30
2019-04-04T10:29:02.844Z,20.25
2019-04-04T10:31:29.456Z,23.77
2019-04-04T10:33:55.866Z,20.15
2019-04-04T10:36:22.247Z,17.57
2019-04-04T10:38:48.511Z,20.95
2019-04-04T10:41:14.806Z,21.02
2019-04-04T10:43:41.267Z,21.23
2019-04-04T10:46:07.571Z,20.90
2019-04-04T10:48:33.953Z,21.57
2019-04-04T10:51:00.470Z,22.62
2019-04-04T10:53:26.917Z,19.50
2019-04-04T10:55:53.221Z,19.10
2019-04-04T10:58:19.551Z,20.75
2019-04-04T11:00:47.647Z,20.80
2019-04-04T11:03:13.920Z,18.75
2019-04-04T11:05:40.184Z,19.73
2019-04-04T11:08:06.719Z,21.80
2019-04-04T11:10:33.786Z,20.72
2019-04-04T11:13:02.727Z,19.65
2019-04-04T11:15:30.816Z,23.25
2019-04-04T11:17:59.018Z,18.60
2019-04-04T11:20:25.408Z,21.33
2019-04-04T11:22:51.650Z,20.90
2019-04-04T11:25:17.956Z,22.05
2019-04-04T11:27:44.640Z,21.60
2019-04-04T11:30:11.512Z,23.18
2019-04-04T11:32:37.974Z,21.60
2019-04-04T11:35:05.560Z,21.55
2019-04-04T11:37:31.907Z,23.35
2019-04-04T11:39:58.215Z,21.35
2019-04-04T11:42:24.456Z,22.40
2019-04-04T11:44:50.748Z,22.37
2019-04-04T11:47:17.030Z,25.05
2019-04-04T11:49:43.420Z,21.87
2019-04-04T11:52:09.834Z,21.80
2019-04-04T11:54:38.200Z,22.40
2019-04-04T11:57:04.705Z,26.15
2019-04-04T11:59:31.074Z,26.05
2019-04-04T12:01:57.786Z,22.87
2019-04-04T12:04:26.635Z,22.48
2019-04-04T12:06:52.946Z,24.95
2019-04-04T12:09:19.341Z,26.48
2019-04-04T12:11:47.649Z,26.23
2019-04-04T12:14:14.262Z,24.50
2019-04-04T12:16:40.690Z,24.52
2019-04-04T12:19:07.658Z,24.10
2019-04-04T12:21:34.246Z,21.65
2019-04-04T12:24:00.663Z,23.12
2019-04-04T12:26:27.090Z,21.90
2019-04-04T12:28:53.496Z,22.07
2019-04-04T12:31:19.738Z,23.85
2019-04-04T12:33:46.068Z,24.23
2019-04-04T12:36:23.987Z,24.90
2019-04-04T12:38:40.948Z,21.05
2019-04-04T12:41:07.497Z,24.63
2019-04-04T12:43:33.892Z,23.98
2019-04-04T12:46:00.139Z,22.67
2019-04-04T12:48:26.438Z,24.20
2019-04-04T12:50:52.840Z,21.35
2019-04-04T12:53:19.271Z,22.22
2019-04-04T12:55:45.559Z,25.92
2019-04-04T12:58:11.931Z,26.82
2019-04-04T13:00:38.159Z,25.80
2019-04-04T13:03:04.551Z,21.95
2019-04-04T13:05:31.005Z,21.40
2019-04-04T13:07:57.333Z,25.32
2019-04-04T13:10:32.950Z,22.85
2019-04-04T13:12:51.766Z,24.92
2019-04-04T13:15:18.666Z,24.92
2019-04-04T13:17:44.928Z,21.93
2019-04-04T13:20:11.499Z,21.95
2019-04-04T13:22:37.821Z,26.05
2019-04-04T13:25:06.809Z,23.60
2019-04-04T13:27:33.212Z,24.00
2019-04-04T13:29:59.453Z,22.67
2019-04-04T13:32:25.974Z,23.22
2019-04-04T13:34:59.415Z,21.70
2019-04-04T13:37:22.742Z,21.48
2019-04-04T13:39:49.009Z,23.55
2019-04-04T13:42:15.422Z,26.35
2019-04-04T13:44:44.669Z,23.70
2019-04-04T13:47:09.910Z,24.35
2019-04-04T13:49:36.173Z,27.93
2019-04-04T13:52:02.822Z,26.15
2019-04-04T13:54:29.108Z,23.65
2019-04-04T13:56:55.532Z,24.18
2019-04-04T13:59:21.814Z,24.72
2019-04-04T14:01:48.229Z,26.45
2019-04-04T14:04:14.511Z,21.75
2019-04-04T14:06:40.966Z,23.60
2019-04-04T14:09:07.701Z,22.15
2019-04-04T14:11:34.065Z,23.55
2019-04-04T14:14:00.465Z,25.43
2019-04-04T14:16:26.991Z,24.30
2019-04-04T14:18:53.255Z,21.05
2019-04-04T14:21:19.959Z,21.27
2019-04-04T14:23:46.590Z,18.82
2019-04-04T14:26:12.948Z,18.60
2019-04-04T14:28:39.306Z,20.92
2019-04-04T14:31:05.969Z,20.10
2019-04-04T14:33:32.312Z,21.90
2019-04-04T14:35:58.713Z,20.75
2019-04-04T14:38:25.173Z,23.20
2019-04-04T14:40:51.558Z,21.33
2019-04-04T14:43:18.277Z,23.38
2019-04-04T14:45:44.517Z,23.12
2019-04-04T14:48:11.682Z,21.60
2019-04-04T14:50:38.238Z,23.67
2019-04-04T14:53:04.491Z,24.43
2019-04-04T14:55:30.855Z,26.23
2019-04-04T14:57:57.288Z,26.10
2019-04-04T15:00:23.881Z,27.77
2019-04-04T15:02:50.390Z,27.73
2019-04-04T15:05:16.903Z,26.37
2019-04-04T15:07:43.376Z,26.37
2019-04-04T15:10:09.960Z,30.15
2019-04-04T15:12:36.407Z,27.65
2019-04-04T15:15:04.295Z,28.40
2019-04-04T15:17:30.776Z,28.85
2019-04-04T15:19:57.280Z,25.52
2019-04-04T15:22:23.550Z,27.37
2019-04-04T15:24:49.974Z,26.33
2019-04-04T15:27:16.374Z,26.20
2019-04-04T15:29:42.699Z,27.55
2019-04-04T15:32:09.116Z,25.75
2019-04-04T15:34:35.481Z,24.12
2019-04-04T15:37:02.043Z,23.92
2019-04-04T15:39:28.628Z,26.87
2019-04-04T15:41:55.018Z,28.07
2019-04-04T15:44:21.440Z,27.48
2019-04-04T15:46:47.797Z,27.27
2019-04-04T15:49:14.191Z,27.13
2019-04-04T15:51:40.555Z,24.47
2019-04-04T15:54:07.023Z,25.12
2019-04-04T15:56:33.414Z,24.75
2019-04-04T15:58:59.687Z,22.30
2019-04-04T16:01:26.189Z,25.77
2019-04-04T16:03:52.566Z,24.02
2019-04-04T16:06:19.060Z,25.12
2019-04-04T16:08:45.616Z,22.25
2019-04-04T16:11:12.139Z,26.73
2019-04-04T16:13:38.573Z,24.15
2019-04-04T16:16:05.002Z,24.18
2019-04-04T16:18:31.435Z,22.22
2019-04-04T16:20:57.669Z,22.75
2019-04-04T16:23:24.001Z,27.93
2019-04-04T16:25:50.257Z,26.20
2019-04-04T16:28:16.648Z,29.45
2019-04-04T16:30:43.031Z,25.55
2019-04-04T16:33:09.614Z,25.45
2019-04-04T16:35:36.425Z,28.15
2019-04-04T16:38:02.912Z,24.20
2019-04-04T16:40:29.384Z,25.45
2019-04-04T16:42:55.880Z,27.98
2019-04-04T16:45:22.356Z,26.50
2019-04-04T16:47:48.732Z,27.45
2019-04-04T16:50:15.388Z,29.02
2019-04-04T16:52:42.084Z,27.70
2019-04-04T16:55:08.976Z,26.62
2019-04-04T16:57:35.531Z,21.55
2019-04-04T17:00:07.471Z,18.75
2019-04-04T17:02:33.930Z,20.43
2019-04-04T17:05:00.398Z,20.27
2019-04-04T17:07:28.284Z,20.72
2019-04-04T17:09:54.841Z,19.50
2019-04-04T17:12:21.250Z,23.42
2019-04-04T17:14:47.789Z,19.77
2019-04-04T17:17:14.089Z,20.65
2019-04-04T17:19:40.430Z,20.30
2019-04-04T17:22:06.705Z,21.10
2019-04-04T17:24:32.968Z,23.18
2019-04-04T17:26:59.499Z,21.80
2019-04-04T17:29:27.464Z,21.17
2019-04-04T17:31:53.832Z,18.90
2019-04-04T17:34:20.282Z,23.75
2019-04-04T17:36:46.877Z,19.45
2019-04-04T17:39:13.108Z,20.82
2019-04-04T17:41:39.625Z,20.70
2019-04-04T17:44:06.583Z,21.23
2019-04-04T17:46:33.294Z,19.37
2019-04-04T17:48:59.842Z,20.00
2019-04-04T17:51:26.218Z,20.25
2019-04-04T17:53:53.555Z,19.17
2019-04-04T17:56:20.281Z,22.45
2019-04-04T17:58:46.680Z,17.80
2019-04-04T18:01:13.231Z,18.62
2019-04-04T18:03:39.589Z,19.65
2019-04-04T18:06:06.149Z,17.48
2019-04-04T18:08:32.333Z,16.70
2019-04-04T18:10:58.744Z,16.52
2019-04-04T18:13:25.034Z,18.73
2019-04-04T18:15:51.452Z,19.23
2019-04-04T18:18:18.035Z,20.57
2019-04-04T18:20:44.488Z,17.73
2019-04-04T18:23:10.896Z,19.77
2019-04-04T18:25:37.357Z,19.45
2019-04-04T18:28:03.672Z,16.82
2019-04-04T18:30:30.027Z,17.95
2019-04-04T18:32:56.836Z,17.87
2019-04-04T18:35:23.538Z,17.60
2019-04-04T18:37:50.059Z,20.35
2019-04-04T18:40:16.566Z,17.42
2019-04-04T18:42:52.556Z,19.95
2019-04-04T18:45:11.657Z,20.20
2019-04-04T18:47:38.200Z,21.25
2019-04-04T18:50:05.699Z,19.85
2019-04-04T18:52:32.103Z,20.25
2019-04-04T18:54:58.480Z,18.40
2019-04-04T18:57:24.949Z,20.17
2019-04-04T18:59:51.538Z,17.32
2019-04-04T19:02:18.017Z,19.73
2019-04-04T19:04:44.467Z,17.98
2019-04-04T19:07:11.069Z,19.32
2019-04-04T19:09:37.523Z,19.05
2019-04-04T19:12:03.809Z,20.02
2019-04-04T19:14:30.214Z,22.15
2019-04-04T19:16:56.515Z,18.48
2019-04-04T19:19:22.950Z,20.65
2019-04-04T19:21:49.614Z,21.45
2019-04-04T19:24:15.884Z,21.90
2019-04-04T19:26:42.266Z,25.92
2019-04-04T19:29:08.763Z,21.10
2019-04-04T19:31:35.174Z,18.55
2019-04-04T19:34:01.578Z,21.75
2019-04-04T19:36:28.010Z,22.13
2019-04-04T19:38:54.257Z,25.92
2019-04-04T19:41:21.372Z,20.25
2019-04-04T19:43:47.878Z,22.22
2019-04-04T19:46:14.232Z,27.30
2019-04-04T19:48:40.652Z,23.92
2019-04-04T19:51:07.076Z,25.37
2019-04-04T19:53:33.549Z,26.25
2019-04-04T19:55:59.967Z,26.25
2019-04-04T19:58:26.382Z,26.87
2019-04-04T20:00:52.841Z,23.22
2019-04-04T20:03:19.246Z,31.77
2019-04-04T20:05:45.655Z,24.85
2019-04-04T20:08:12.007Z,24.18
2019-04-04T20:10:38.560Z,23.70
2019-04-04T20:13:04.876Z,32.95
2019-04-04T20:15:31.344Z,27.50
2019-04-04T20:17:57.762Z,34.80
2019-04-04T20:20:24.067Z,28.75
2019-04-04T20:22:50.338Z,24.72
2019-04-04T20:25:16.746Z,24.45
2019-04-04T20:27:53.955Z,26.52
2019-04-04T20:30:14.278Z,23.52
2019-04-04T20:32:40.770Z,28.77
2019-04-04T20:35:07.297Z,25.02
2019-04-04T20:37:33.661Z,27.87
2019-04-04T20:40:02.661Z,26.52
2019-04-04T20:42:28.992Z,27.37
2019-04-04T20:44:56.728Z,32.45
2019-04-04T20:47:23.115Z,26.17
2019-04-04T20:49:50.203Z,28.90
2019-04-04T20:52:16.748Z,28.62
2019-04-04T20:54:43.099Z,28.85
2019-04-04T20:57:09.538Z,27.15
2019-04-04T20:59:36.043Z,28.17
2019-04-04T21:02:02.553Z,32.35
2019-04-04T21:04:29.024Z,28.77
2019-04-04T21:06:55.501Z,29.65
2019-04-04T21:09:21.768Z,28.87
2019-04-04T21:11:48.261Z,31.62
2019-04-04T21:14:15.184Z,34.73
2019-04-04T21:16:41.559Z,31.57
2019-04-04T21:19:07.949Z,33.18
2019-04-04T21:21:34.296Z,38.15
2019-04-04T21:24:00.661Z,34.50
2019-04-04T21:26:26.906Z,39.00
2019-04-04T21:28:53.572Z,41.58
2019-04-04T21:31:19.956Z,39.03
2019-04-04T21:33:46.221Z,37.48
2019-04-04T21:36:12.532Z,41.18
2019-04-04T21:38:38.991Z,37.60
2019-04-04T21:41:05.261Z,39.42
2019-04-04T21:43:31.605Z,42.00
2019-04-04T21:45:57.972Z,39.92
2019-04-04T21:48:24.237Z,46.15
2019-04-04T21:50:50.592Z,47.35
2019-04-04T21:53:17.102Z,38.65
2019-04-04T21:55:43.570Z,36.98
2019-04-04T21:58:09.841Z,36.55
2019-04-04T22:00:38.650Z,42.13
2019-04-04T22:03:05.019Z,43.05
2019-04-04T22:05:31.487Z,46.58
2019-04-04T22:07:58.070Z,37.20
2019-04-04T22:10:24.618Z,40.98
2019-04-04T22:12:50.988Z,40.95
2019-04-04T22:15:19.896Z,32.70
2019-04-04T22:17:46.211Z,46.20
2019-04-04T22:20:13.069Z,36.70
2019-04-04T22:22:39.490Z,47.95
2019-04-04T22:25:06.181Z,42.10
2019-04-04T22:27:32.682Z,42.83
2019-04-04T22:29:58.953Z,45.92
2019-04-04T22:32:25.260Z,47.67
2019-04-04T22:34:51.542Z,38.23
2019-04-04T22:37:18.048Z,46.88
2019-04-04T22:39:44.424Z,42.75
2019-04-04T22:42:11.528Z,45.83
2019-04-04T22:44:37.831Z,54.77
2019-04-04T22:47:04.327Z,50.43
2019-04-04T22:49:30.584Z,51.83
2019-04-04T22:51:56.986Z,60.48
2019-04-04T22:54:23.370Z,55.63
2019-04-04T22:56:49.699Z,62.35
2019-04-04T22:59:16.012Z,63.05
2019-04-04T23:01:42.502Z,64.72
2019-04-04T23:04:09.004Z,73.92
2019-04-04T23:06:35.458Z,62.00
2019-04-04T23:09:02.246Z,57.00
2019-04-04T23:11:28.775Z,72.45
2019-04-04T23:13:55.063Z,84.17
2019-04-04T23:16:21.441Z,62.15
2019-04-04T23:18:48.628Z,84.17
2019-04-04T23:21:15.060Z,92.05
2019-04-04T23:23:41.449Z,98.33
2019-04-04T23:26:07.810Z,89.32
2019-04-04T23:28:34.217Z,72.95
2019-04-04T23:31:00.501Z,86.12
2019-04-04T23:33:26.891Z,72.92
2019-04-04T23:35:53.179Z,83.07
2019-04-04T23:38:19.456Z,79.75
2019-04-04T23:40:45.861Z,84.47
2019-04-04T23:43:12.235Z,104.95
2019-04-04T23:45:38.651Z,87.45
2019-04-04T23:48:04.989Z,106.70
2019-04-04T23:50:31.256Z,82.02
2019-04-04T23:52:57.528Z,102.70
2019-04-04T23:55:24.035Z,96.00
2019-04-04T23:57:50.369Z,78.02
